sensor_id;sensor_type;location;lat;lon;timestamp;pressure;altitude;pressure_sealevel;temperature;humidity
42587;BME280;28216;53.362;-6.288;2023-03-01T00:00:41;103591.56;;;6.81;97.65
42587;BME280;28216;53.362;-6.288;2023-03-01T00:03:19;103590.56;;;6.83;97.86
42587;BME280;28216;53.362;-6.288;2023-03-01T00:05:57;103586.34;;;6.81;97.97
42587;BME280;28216;53.362;-6.288;2023-03-01T00:08:39;103582.03;;;6.80;98.42
42587;BME280;28216;53.362;-6.288;2023-03-01T00:13:57;103573.16;;;6.84;99.17
42587;BME280;28216;53.362;-6.288;2023-03-01T00:16:51;103579.09;;;6.87;99.21
42587;BME280;28216;53.362;-6.288;2023-03-01T00:19:19;103574.72;;;6.88;99.41
42587;BME280;28216;53.362;-6.288;2023-03-01T00:21:51;103573.69;;;6.92;99.65
42587;BME280;28216;53.362;-6.288;2023-03-01T00:24:28;103565.78;;;6.93;99.90
42587;BME280;28216;53.362;-6.288;2023-03-01T00:30:26;103568.06;;;7.01;100.00
42587;BME280;28216;53.362;-6.288;2023-03-01T00:33:11;103565.44;;;7.01;100.00
42587;BME280;28216;53.362;-6.288;2023-03-01T00:35:58;103568.63;;;7.08;100.00
42587;BME280;28216;53.362;-6.288;2023-03-01T00:41:47;103568.22;;;7.17;100.00
42587;BME280;28216;53.362;-6.288;2023-03-01T00:44:32;103562.72;;;7.23;100.00
42587;BME280;28216;53.362;-6.288;2023-03-01T00:47:09;103565.28;;;7.24;100.00
42587;BME280;28216;53.362;-6.288;2023-03-01T00:49:50;103560.69;;;7.29;100.00
42587;BME280;28216;53.362;-6.288;2023-03-01T00:52:21;103557.03;;;7.33;100.00
42587;BME280;28216;53.362;-6.288;2023-03-01T00:55:04;103558.66;;;7.36;100.00
42587;BME280;28216;53.362;-6.288;2023-03-01T00:58:21;103557.81;;;7.36;99.35
42587;BME280;28216;53.362;-6.288;2023-03-01T01:01:07;103560.28;;;7.39;99.98
42587;BME280;28216;53.362;-6.288;2023-03-01T01:06:23;103567.19;;;7.40;99.05
42587;BME280;28216;53.362;-6.288;2023-03-01T01:12:26;103554.34;;;7.35;99.00
42587;BME280;28216;53.362;-6.288;2023-03-01T01:15:05;103554.41;;;7.33;98.82
42587;BME280;28216;53.362;-6.288;2023-03-01T01:18:04;103561.41;;;7.33;98.58
42587;BME280;28216;53.362;-6.288;2023-03-01T01:20:41;103561.41;;;7.33;98.93
42587;BME280;28216;53.362;-6.288;2023-03-01T01:23:41;103557.94;;;7.32;99.45
42587;BME280;28216;53.362;-6.288;2023-03-01T01:26:32;103556.31;;;7.30;99.82
42587;BME280;28216;53.362;-6.288;2023-03-01T01:29:27;103567.59;;;7.30;99.81
42587;BME280;28216;53.362;-6.288;2023-03-01T01:35:17;103560.75;;;7.28;98.42
42587;BME280;28216;53.362;-6.288;2023-03-01T03:29:31;103430.28;;;7.28;93.01
42587;BME280;28216;53.362;-6.288;2023-03-01T03:42:37;103423.03;;;7.16;93.72
42587;BME280;28216;53.362;-6.288;2023-03-01T03:45:15;103423.09;;;7.14;93.85
42587;BME280;28216;53.362;-6.288;2023-03-01T03:47:42;103431.00;;;7.13;93.88
42587;BME280;28216;53.362;-6.288;2023-03-01T03:50:09;103426.56;;;7.15;93.58
42587;BME280;28216;53.362;-6.288;2023-03-01T03:52:37;103425.72;;;7.14;93.04
42587;BME280;28216;53.362;-6.288;2023-03-01T03:55:04;103425.16;;;7.08;93.02
42587;BME280;28216;53.362;-6.288;2023-03-01T03:57:35;103423.47;;;7.07;93.24
42587;BME280;28216;53.362;-6.288;2023-03-01T04:00:11;103422.53;;;7.08;92.53
42587;BME280;28216;53.362;-6.288;2023-03-01T04:02:40;103419.84;;;7.09;92.35
42587;BME280;28216;53.362;-6.288;2023-03-01T04:05:08;103417.25;;;7.09;92.51
42587;BME280;28216;53.362;-6.288;2023-03-01T04:07:37;103411.25;;;7.07;91.90
42587;BME280;28216;53.362;-6.288;2023-03-01T04:10:09;103412.09;;;7.08;92.19
42587;BME280;28216;53.362;-6.288;2023-03-01T04:12:35;103411.97;;;7.11;91.30
42587;BME280;28216;53.362;-6.288;2023-03-01T04:15:05;103406.03;;;7.07;91.43
42587;BME280;28216;53.362;-6.288;2023-03-01T04:17:42;103410.34;;;7.08;90.98
42587;BME280;28216;53.362;-6.288;2023-03-01T04:20:14;103408.88;;;7.03;90.68
42587;BME280;28216;53.362;-6.288;2023-03-01T04:22:43;103407.88;;;7.05;89.87
42587;BME280;28216;53.362;-6.288;2023-03-01T04:25:09;103403.56;;;7.04;90.22
42587;BME280;28216;53.362;-6.288;2023-03-01T04:27:35;103403.56;;;7.04;89.81
42587;BME280;28216;53.362;-6.288;2023-03-01T04:30:04;103400.19;;;7.02;89.99
42587;BME280;28216;53.362;-6.288;2023-03-01T04:32:30;103399.28;;;7.03;90.10
42587;BME280;28216;53.362;-6.288;2023-03-01T04:34:58;103404.28;;;7.08;89.91
42587;BME280;28216;53.362;-6.288;2023-03-01T04:37:24;103410.56;;;7.04;89.75
42587;BME280;28216;53.362;-6.288;2023-03-01T04:39:50;103399.41;;;7.00;90.44
42587;BME280;28216;53.362;-6.288;2023-03-01T04:42:16;103394.13;;;7.01;90.21
42587;BME280;28216;53.362;-6.288;2023-03-01T04:44:45;103392.22;;;7.05;90.54
42587;BME280;28216;53.362;-6.288;2023-03-01T04:47:11;103393.06;;;7.06;90.70
42587;BME280;28216;53.362;-6.288;2023-03-01T04:49:39;103395.53;;;7.09;90.88
42587;BME280;28216;53.362;-6.288;2023-03-01T04:52:04;103394.06;;;7.03;91.04
42587;BME280;28216;53.362;-6.288;2023-03-01T04:54:34;103394.97;;;7.02;91.29
42587;BME280;28216;53.362;-6.288;2023-03-01T06:10:37;103397.53;;;6.85;100.00
42587;BME280;28216;53.362;-6.288;2023-03-01T06:13:11;103389.78;;;6.83;100.00
42587;BME280;28216;53.362;-6.288;2023-03-01T06:33:54;103404.72;;;6.80;100.00
42587;BME280;28216;53.362;-6.288;2023-03-01T06:36:19;103405.63;;;6.79;100.00
42587;BME280;28216;53.362;-6.288;2023-03-01T06:42:10;103400.19;;;6.83;100.00
42587;BME280;28216;53.362;-6.288;2023-03-01T06:44:38;103388.78;;;6.86;100.00
42587;BME280;28216;53.362;-6.288;2023-03-01T07:12:11;103400.16;;;7.21;97.87
42587;BME280;28216;53.362;-6.288;2023-03-01T07:14:40;103396.78;;;7.19;97.39
42587;BME280;28216;53.362;-6.288;2023-03-01T07:20:34;103402.28;;;7.13;97.37
42587;BME280;28216;53.362;-6.288;2023-03-01T07:23:00;103399.00;;;7.09;97.30
42587;BME280;28216;53.362;-6.288;2023-03-01T07:25:25;103404.97;;;7.11;97.25
42587;BME280;28216;53.362;-6.288;2023-03-01T07:27:52;103410.34;;;7.08;97.30
42587;BME280;28216;53.362;-6.288;2023-03-01T07:30:21;103403.56;;;7.04;97.58
42587;BME280;28216;53.362;-6.288;2023-03-01T07:32:46;103408.72;;;7.06;97.51
42587;BME280;28216;53.362;-6.288;2023-03-01T07:35:15;103405.19;;;7.07;97.53
42587;BME280;28216;53.362;-6.288;2023-03-01T07:37:41;103403.44;;;7.07;97.15
42587;BME280;28216;53.362;-6.288;2023-03-01T07:40:11;103395.59;;;7.07;96.95
42587;BME280;28216;53.362;-6.288;2023-03-01T07:42:54;103405.13;;;7.08;96.54
42587;BME280;28216;53.362;-6.288;2023-03-01T07:45:19;103408.56;;;7.09;95.48
42587;BME280;28216;53.362;-6.288;2023-03-01T07:47:45;103399.00;;;7.09;95.17
42587;BME280;28216;53.362;-6.288;2023-03-01T07:50:10;103401.75;;;7.06;94.34
42587;BME280;28216;53.362;-6.288;2023-03-01T07:52:36;103397.28;;;7.08;93.34
42587;BME280;28216;53.362;-6.288;2023-03-01T07:55:01;103400.69;;;7.10;93.05
42587;BME280;28216;53.362;-6.288;2023-03-01T07:57:27;103390.09;;;7.13;92.66
42587;BME280;28216;53.362;-6.288;2023-03-01T07:59:52;103402.38;;;7.11;92.68
42587;BME280;28216;53.362;-6.288;2023-03-01T08:02:23;103400.47;;;7.15;91.44
42587;BME280;28216;53.362;-6.288;2023-03-01T14:02:23;103182.38;;;9.47;77.86
42587;BME280;28216;53.362;-6.288;2023-03-01T14:29:58;103155.69;;;9.12;78.53
42587;BME280;28216;53.362;-6.288;2023-03-01T14:32:33;103156.53;;;9.12;78.13
42587;BME280;28216;53.362;-6.288;2023-03-01T14:35:00;103148.31;;;9.18;77.06
42587;BME280;28216;53.362;-6.288;2023-03-01T14:52:16;103139.63;;;9.18;75.04
42587;BME280;28216;53.362;-6.288;2023-03-01T14:54:51;103127.38;;;9.18;77.18
42587;BME280;28216;53.362;-6.288;2023-03-01T15:31:25;103090.28;;;8.82;80.27
42587;BME280;28216;53.362;-6.288;2023-03-01T15:47:46;103074.97;;;8.46;81.23
42587;BME280;28216;53.362;-6.288;2023-03-01T15:49:54;103068.25;;;8.42;81.97
42587;BME280;28216;53.362;-6.288;2023-03-01T15:52:41;103066.00;;;8.36;81.73
42587;BME280;28216;53.362;-6.288;2023-03-01T15:55:37;103061.63;;;8.20;82.27
42587;BME280;28216;53.362;-6.288;2023-03-01T16:00:32;103046.59;;;8.08;83.17
42587;BME280;28216;53.362;-6.288;2023-03-01T16:03:03;103048.09;;;8.12;83.41
42587;BME280;28216;53.362;-6.288;2023-03-01T16:08:26;103042.47;;;8.20;83.77
42587;BME280;28216;53.362;-6.288;2023-03-01T16:24:31;102990.59;;;8.28;79.28
42587;BME280;28216;53.362;-6.288;2023-03-01T16:37:12;102995.16;;;8.40;81.14
42587;BME280;28216;53.362;-6.288;2023-03-01T16:39:38;102991.13;;;8.35;81.82
42587;BME280;28216;53.362;-6.288;2023-03-01T16:42:06;103000.19;;;8.43;82.50
42587;BME280;28216;53.362;-6.288;2023-03-01T16:44:42;102990.66;;;8.42;82.38
42587;BME280;28216;53.362;-6.288;2023-03-01T16:47:10;102992.34;;;8.43;83.10
42587;BME280;28216;53.362;-6.288;2023-03-01T16:49:35;102990.75;;;8.41;83.53
42587;BME280;28216;53.362;-6.288;2023-03-01T16:52:01;103000.09;;;8.45;83.99
42587;BME280;28216;53.362;-6.288;2023-03-01T16:54:36;102998.31;;;8.45;84.77
42587;BME280;28216;53.362;-6.288;2023-03-01T16:57:09;102995.97;;;8.41;85.74
42587;BME280;28216;53.362;-6.288;2023-03-01T16:59:37;102985.06;;;8.34;86.38
42587;BME280;28216;53.362;-6.288;2023-03-01T17:02:08;102984.63;;;8.26;87.04
42587;BME280;28216;53.362;-6.288;2023-03-01T17:11:13;102976.22;;;8.05;86.69
42587;BME280;28216;53.362;-6.288;2023-03-01T17:13:40;102990.06;;;8.07;86.57
42587;BME280;28216;53.362;-6.288;2023-03-01T17:16:12;102979.19;;;7.99;87.55
42587;BME280;28216;53.362;-6.288;2023-03-01T17:29:42;102980.59;;;7.75;89.73
42587;BME280;28216;53.362;-6.288;2023-03-01T17:32:08;102974.22;;;7.64;90.40
42587;BME280;28216;53.362;-6.288;2023-03-01T17:34:36;102968.25;;;7.62;90.23
42587;BME280;28216;53.362;-6.288;2023-03-01T17:37:16;102964.78;;;7.62;90.18
42587;BME280;28216;53.362;-6.288;2023-03-01T17:40:08;102967.66;;;7.57;90.70
42587;BME280;28216;53.362;-6.288;2023-03-01T17:42:36;102973.38;;;7.48;91.45
42587;BME280;28216;53.362;-6.288;2023-03-01T17:45:07;102968.34;;;7.45;92.22
42587;BME280;28216;53.362;-6.288;2023-03-01T18:09:26;102966.56;;;7.46;94.76
42587;BME280;28216;53.362;-6.288;2023-03-01T18:12:19;102971.63;;;7.49;94.48
42587;BME280;28216;53.362;-6.288;2023-03-01T18:14:57;102966.47;;;7.47;94.53
42587;BME280;28216;53.362;-6.288;2023-03-01T18:17:49;102957.06;;;7.45;94.79
42587;BME280;28216;53.362;-6.288;2023-03-01T18:20:45;102968.47;;;7.42;95.06
42587;BME280;28216;53.362;-6.288;2023-03-01T18:30:54;102968.56;;;7.41;95.55
42587;BME280;28216;53.362;-6.288;2023-03-01T18:33:25;102970.25;;;7.42;95.69
42587;BME280;28216;53.362;-6.288;2023-03-01T18:36:47;102968.34;;;7.45;95.30
42587;BME280;28216;53.362;-6.288;2023-03-01T18:39:26;102969.28;;;7.44;95.56
42587;BME280;28216;53.362;-6.288;2023-03-01T18:42:00;102969.94;;;7.48;95.31
42587;BME280;28216;53.362;-6.288;2023-03-01T18:44:49;102967.16;;;7.51;95.66
42587;BME280;28216;53.362;-6.288;2023-03-01T19:12:22;102957.44;;;7.69;95.64
42587;BME280;28216;53.362;-6.288;2023-03-01T19:14:58;102941.78;;;7.69;95.95
42587;BME280;28216;53.362;-6.288;2023-03-01T19:17:24;102941.69;;;7.70;96.11
42587;BME280;28216;53.362;-6.288;2023-03-01T19:19:57;102949.34;;;7.73;96.30
42587;BME280;28216;53.362;-6.288;2023-03-01T19:22:23;102949.28;;;7.75;96.06
42587;BME280;28216;53.362;-6.288;2023-03-01T19:24:49;102944.88;;;7.75;96.44
42587;BME280;28216;53.362;-6.288;2023-03-01T19:27:19;102949.94;;;7.78;96.86
42587;BME280;28216;53.362;-6.288;2023-03-01T19:29:52;102948.06;;;7.80;97.03
42587;BME280;28216;53.362;-6.288;2023-03-01T19:32:20;102946.31;;;7.81;97.04
42587;BME280;28216;53.362;-6.288;2023-03-01T19:34:45;102941.00;;;7.82;97.84
42587;BME280;28216;53.362;-6.288;2023-03-01T19:37:13;102932.41;;;7.80;98.16
42587;BME280;28216;53.362;-6.288;2023-03-01T19:39:41;102938.28;;;7.84;98.31
42587;BME280;28216;53.362;-6.288;2023-03-01T19:42:10;102932.13;;;7.85;98.16
42587;BME280;28216;53.362;-6.288;2023-03-01T19:44:35;102936.25;;;7.89;98.29
42587;BME280;28216;53.362;-6.288;2023-03-01T19:47:02;102927.59;;;7.88;98.50
42587;BME280;28216;53.362;-6.288;2023-03-01T19:49:30;102935.50;;;7.87;98.44
42587;BME280;28216;53.362;-6.288;2023-03-01T19:51:57;102925.22;;;7.84;98.62
42587;BME280;28216;53.362;-6.288;2023-03-01T19:54:22;102922.53;;;7.85;98.04
42587;BME280;28216;53.362;-6.288;2023-03-01T19:56:49;102924.78;;;7.91;97.83
42587;BME280;28216;53.362;-6.288;2023-03-01T19:59:19;102923.50;;;7.98;97.23
42587;BME280;28216;53.362;-6.288;2023-03-01T20:01:52;102924.06;;;8.04;95.80
42587;BME280;28216;53.362;-6.288;2023-03-01T20:04:30;102915.22;;;8.06;94.70
42587;BME280;28216;53.362;-6.288;2023-03-01T20:06:55;102916.25;;;8.04;94.66
42587;BME280;28216;53.362;-6.288;2023-03-01T20:09:21;102921.38;;;8.05;94.50
42587;BME280;28216;53.362;-6.288;2023-03-01T20:11:47;102920.63;;;8.03;94.27
42587;BME280;28216;53.362;-6.288;2023-03-01T20:14:12;102917.16;;;8.03;93.53
42587;BME280;28216;53.362;-6.288;2023-03-01T20:16:41;102918.84;;;8.04;91.59
42587;BME280;28216;53.362;-6.288;2023-03-01T20:19:06;102907.56;;;8.03;90.81
42587;BME280;28216;53.362;-6.288;2023-03-01T20:21:32;102910.34;;;8.00;90.52
42587;BME280;28216;53.362;-6.288;2023-03-01T20:24:21;102906.06;;;7.99;88.94
42587;BME280;28216;53.362;-6.288;2023-03-01T20:26:49;102901.00;;;7.96;87.22
42587;BME280;28216;53.362;-6.288;2023-03-01T20:29:17;102907.16;;;7.95;86.80
42587;BME280;28216;53.362;-6.288;2023-03-01T20:31:45;102906.16;;;7.97;86.30
42587;BME280;28216;53.362;-6.288;2023-03-01T20:34:11;102906.91;;;8.00;84.77
42587;BME280;28216;53.362;-6.288;2023-03-01T20:36:36;102905.22;;;7.98;82.99
42587;BME280;28216;53.362;-6.288;2023-03-01T20:39:03;102906.06;;;7.99;82.02
42587;BME280;28216;53.362;-6.288;2023-03-01T20:41:28;102900.84;;;7.99;81.03
42587;BME280;28216;53.362;-6.288;2023-03-01T20:43:54;102893.00;;;7.99;81.19
42587;BME280;28216;53.362;-6.288;2023-03-01T20:46:22;102898.13;;;8.01;81.39
42587;BME280;28216;53.362;-6.288;2023-03-01T20:48:50;102894.78;;;7.98;81.54
42587;BME280;28216;53.362;-6.288;2023-03-01T20:51:21;102884.41;;;7.97;81.88
42587;BME280;28216;53.362;-6.288;2023-03-01T20:53:46;102883.47;;;7.98;82.79
42587;BME280;28216;53.362;-6.288;2023-03-01T20:56:16;102884.50;;;7.95;83.50
42587;BME280;28216;53.362;-6.288;2023-03-01T20:58:42;102883.56;;;7.96;83.84
42587;BME280;28216;53.362;-6.288;2023-03-01T21:01:10;102875.63;;;7.98;83.86
42587;BME280;28216;53.362;-6.288;2023-03-01T21:03:47;102884.50;;;7.95;84.49
42587;BME280;28216;53.362;-6.288;2023-03-01T21:06:12;102882.63;;;7.97;84.85
42587;BME280;28216;53.362;-6.288;2023-03-01T21:08:38;102879.28;;;7.95;85.02
42587;BME280;28216;53.362;-6.288;2023-03-01T21:11:15;102872.28;;;7.96;84.88
42587;BME280;28216;53.362;-6.288;2023-03-01T21:14:13;102877.41;;;7.97;85.31
42587;BME280;28216;53.362;-6.288;2023-03-01T21:16:39;102864.34;;;7.97;85.90
42587;BME280;28216;53.362;-6.288;2023-03-01T21:19:04;102859.31;;;7.94;86.60
42587;BME280;28216;53.362;-6.288;2023-03-01T21:21:30;102865.66;;;7.90;87.54
42587;BME280;28216;53.362;-6.288;2023-03-01T21:23:58;102854.34;;;7.90;87.85
42587;BME280;28216;53.362;-6.288;2023-03-01T21:26:27;102862.19;;;7.90;88.63
42587;BME280;28216;53.362;-6.288;2023-03-01T21:28:58;102860.59;;;7.87;89.65
42587;BME280;28216;53.362;-6.288;2023-03-01T21:31:27;102847.44;;;7.89;89.79
42587;BME280;28216;53.362;-6.288;2023-03-01T21:33:55;102857.25;;;7.85;90.34
42587;BME280;28216;53.362;-6.288;2023-03-01T21:36:23;102834.75;;;7.83;90.48
42587;BME280;28216;53.362;-6.288;2023-03-01T21:38:49;102848.47;;;7.86;89.95
42587;BME280;28216;53.362;-6.288;2023-03-01T21:41:18;102852.69;;;7.89;88.35
42587;BME280;28216;53.362;-6.288;2023-03-01T21:43:45;102850.53;;;7.81;87.70
42587;BME280;28216;53.362;-6.288;2023-03-01T21:46:14;102859.28;;;7.80;87.79
42587;BME280;28216;53.362;-6.288;2023-03-01T21:48:42;102848.66;;;7.83;86.89
42587;BME280;28216;53.362;-6.288;2023-03-01T21:51:11;102839.06;;;7.84;86.56
42587;BME280;28216;53.362;-6.288;2023-03-01T21:54:04;102834.84;;;7.81;85.81
42587;BME280;28216;53.362;-6.288;2023-03-01T21:56:35;102838.31;;;7.82;85.50
42587;BME280;28216;53.362;-6.288;2023-03-01T21:59:39;102851.34;;;7.82;85.61
42587;BME280;28216;53.362;-6.288;2023-03-01T22:02:31;102842.59;;;7.83;85.77
42587;BME280;28216;53.362;-6.288;2023-03-01T22:05:56;102851.28;;;7.83;85.66
42587;BME280;28216;53.362;-6.288;2023-03-01T22:08:58;102848.00;;;7.80;85.92
42587;BME280;28216;53.362;-6.288;2023-03-01T22:11:35;102858.63;;;7.77;86.04
42587;BME280;28216;53.362;-6.288;2023-03-01T22:14:17;102845.75;;;7.74;85.95
42587;BME280;28216;53.362;-6.288;2023-03-01T22:16:44;102848.28;;;7.75;86.00
42587;BME280;28216;53.362;-6.288;2023-03-01T22:19:11;102843.50;;;7.68;86.80
42587;BME280;28216;53.362;-6.288;2023-03-01T22:21:38;102838.09;;;7.71;86.84
42587;BME280;28216;53.362;-6.288;2023-03-01T22:24:05;102831.38;;;7.67;87.52
42587;BME280;28216;53.362;-6.288;2023-03-01T22:26:34;102830.53;;;7.66;88.47
42587;BME280;28216;53.362;-6.288;2023-03-01T22:29:05;102840.22;;;7.64;88.96
42587;BME280;28216;53.362;-6.288;2023-03-01T22:31:31;102850.75;;;7.62;89.73
42587;BME280;28216;53.362;-6.288;2023-03-01T22:33:57;102855.22;;;7.60;90.82
42587;BME280;28216;53.362;-6.288;2023-03-01T22:36:23;102844.03;;;7.58;91.37
42587;BME280;28216;53.362;-6.288;2023-03-01T22:41:56;102844.78;;;7.60;91.91
42587;BME280;28216;53.362;-6.288;2023-03-01T22:44:27;102842.84;;;7.64;91.67
42587;BME280;28216;53.362;-6.288;2023-03-01T22:47:12;102838.28;;;7.68;91.67
42587;BME280;28216;53.362;-6.288;2023-03-01T22:49:49;102848.63;;;7.69;91.93
42587;BME280;28216;53.362;-6.288;2023-03-01T22:52:21;102847.13;;;7.65;92.53
42587;BME280;28216;53.362;-6.288;2023-03-01T22:55:03;102844.50;;;7.65;92.69
42587;BME280;28216;53.362;-6.288;2023-03-01T22:57:31;102841.34;;;7.60;92.88
42587;BME280;28216;53.362;-6.288;2023-03-01T22:59:57;102843.00;;;7.61;92.93
42587;BME280;28216;53.362;-6.288;2023-03-01T23:02:34;102842.25;;;7.59;93.27
42587;BME280;28216;53.362;-6.288;2023-03-01T23:05:06;102840.56;;;7.58;93.94
42587;BME280;28216;53.362;-6.288;2023-03-01T23:07:31;102839.81;;;7.56;94.38
42587;BME280;28216;53.362;-6.288;2023-03-01T23:09:57;102838.16;;;7.55;94.46
42587;BME280;28216;53.362;-6.288;2023-03-01T23:12:27;102836.28;;;7.57;94.68
42587;BME280;28216;53.362;-6.288;2023-03-01T23:14:53;102842.53;;;7.54;95.79
42587;BME280;28216;53.362;-6.288;2023-03-01T23:17:19;102831.44;;;7.51;97.10
42587;BME280;28216;53.362;-6.288;2023-03-01T23:19:45;102837.75;;;7.47;97.83
42587;BME280;28216;53.362;-6.288;2023-03-01T23:22:10;102831.88;;;7.43;98.36
42587;BME280;28216;53.362;-6.288;2023-03-01T23:24:36;102825.09;;;7.39;98.17
42587;BME280;28216;53.362;-6.288;2023-03-01T23:27:04;102829.50;;;7.39;98.38
42587;BME280;28216;53.362;-6.288;2023-03-01T23:29:30;102821.56;;;7.40;98.15
42587;BME280;28216;53.362;-6.288;2023-03-01T23:31:57;102829.84;;;7.32;99.04
42587;BME280;28216;53.362;-6.288;2023-03-01T23:34:24;102824.72;;;7.31;99.27
42587;BME280;28216;53.362;-6.288;2023-03-01T23:36:54;102824.53;;;7.34;99.16
42587;BME280;28216;53.362;-6.288;2023-03-01T23:39:22;102818.38;;;7.35;98.46
42587;BME280;28216;53.362;-6.288;2023-03-01T23:41:47;102826.31;;;7.33;98.58
42587;BME280;28216;53.362;-6.288;2023-03-01T23:44:18;102828.06;;;7.33;98.66
42587;BME280;28216;53.362;-6.288;2023-03-01T23:46:45;102833.38;;;7.31;98.96
42587;BME280;28216;53.362;-6.288;2023-03-01T23:49:13;102844.75;;;7.30;98.87
42587;BME280;28216;53.362;-6.288;2023-03-01T23:51:40;102825.91;;;7.25;99.22
42587;BME280;28216;53.362;-6.288;2023-03-01T23:54:06;102821.69;;;7.23;99.20
42587;BME280;28216;53.362;-6.288;2023-03-01T23:56:35;102822.44;;;7.25;99.05
42587;BME280;28216;53.362;-6.288;2023-03-01T23:59:09;102823.28;;;7.25;99.08
